TimeMST,TemperatureF,Dew PointF,Humidity,Sea Level PressureIn,VisibilityMPH,Wind Direction,Wind SpeedMPH,Gust SpeedMPH,PrecipitationIn,Events,Conditions,WindDirDegrees,DateUTC
12:54 AM,30.9,21.9,69,29.59,10.0,WSW,11.5,-,N/A,,Overcast,250,2012-12-08 07:54:00
1:54 AM,30.0,23.0,75,29.60,10.0,West,12.7,-,N/A,,Overcast,260,2012-12-08 08:54:00
2:54 AM,28.0,21.0,75,29.63,10.0,WNW,13.8,23.0,N/A,,Scattered Clouds,290,2012-12-08 09:54:00
3:54 AM,27.0,21.9,81,29.66,10.0,West,13.8,-,N/A,,Overcast,280,2012-12-08 10:54:00
4:41 AM,26.6,21.2,80,29.57,10.0,WNW,8.1,-,N/A,,Overcast,290,2012-12-08 11:41:00
4:54 AM,26.1,21.9,84,29.67,10.0,West,10.4,-,N/A,,Overcast,270,2012-12-08 11:54:00
5:11 AM,26.6,23.0,86,29.58,2.5,West,6.9,-,0.00,Snow,Light Snow,280,2012-12-08 12:11:00
5:20 AM,26.6,23.0,86,29.58,1.2,West,6.9,-,0.00,Snow,Light Snow,280,2012-12-08 12:20:00
5:33 AM,26.6,23.0,86,29.58,1.0,West,10.4,-,0.00,Snow,Light Snow,280,2012-12-08 12:33:00
5:41 AM,24.8,24.8,100,29.58,0.8,West,12.7,-,0.00,Snow,Light Snow,280,2012-12-08 12:41:00
5:54 AM,26.1,24.1,92,29.67,0.5,WNW,17.3,25.3,0.00,Fog-Snow,Snow,290,2012-12-08 12:54:00
6:09 AM,24.8,24.8,100,29.58,1.0,WNW,10.4,-,0.00,Snow,Light Snow,290,2012-12-08 13:09:00
6:17 AM,24.8,24.8,100,29.58,0.8,WNW,9.2,-,0.00,Snow,Light Snow,290,2012-12-08 13:17:00
6:34 AM,24.8,24.8,100,29.59,1.0,West,13.8,19.6,0.00,Snow,Light Snow,280,2012-12-08 13:34:00
6:44 AM,24.8,23.0,93,29.60,0.8,West,17.3,-,0.00,Snow,Light Snow,280,2012-12-08 13:44:00
6:54 AM,21.9,19.9,92,29.72,0.5,WNW,21.9,35.7,0.00,Fog-Snow,Snow,300,2012-12-08 13:54:00
7:07 AM,19.4,17.6,93,29.63,1.2,WNW,20.7,33.4,0.00,Snow,Light Snow,300,2012-12-08 14:07:00
7:14 AM,17.6,15.8,93,29.64,3.0,WNW,21.9,29.9,0.00,Snow,Light Snow,300,2012-12-08 14:14:00
7:22 AM,17.6,15.8,93,29.65,1.8,WNW,20.7,28.8,0.00,Snow,Light Snow,300,2012-12-08 14:22:00
7:46 AM,14.0,10.4,86,29.68,0.8,WNW,27.6,35.7,0.00,Snow,Light Snow,300,2012-12-08 14:46:00
7:54 AM,12.9,10.0,88,29.82,0.5,WNW,23.0,35.7,0.00,Fog-Snow,Snow,300,2012-12-08 14:54:00
8:01 AM,12.2,10.4,92,29.71,0.2,WNW,26.5,32.2,0.00,Fog-Snow,Heavy Snow,300,2012-12-08 15:01:00
8:42 AM,10.4,8.6,92,29.77,0.5,NW,13.8,26.5,0.00,Fog-Snow,Snow,310,2012-12-08 15:42:00
8:54 AM,10.0,7.0,87,29.93,0.8,NW,20.7,27.6,0.00,Snow,Light Snow,310,2012-12-08 15:54:00
9:04 AM,10.4,6.8,85,29.80,1.0,NW,18.4,28.8,0.00,Snow,Light Snow,310,2012-12-08 16:04:00
9:11 AM,10.4,6.8,85,29.81,0.5,NW,12.7,28.8,0.00,Fog-Snow,Snow,310,2012-12-08 16:11:00
9:21 AM,10.4,6.8,85,29.81,0.2,NW,20.7,33.4,0.00,Fog-Snow,Snow,310,2012-12-08 16:21:00
9:54 AM,10.0,7.0,87,29.99,0.2,WNW,18.4,24.2,0.00,Fog-Snow,Snow,300,2012-12-08 16:54:00
10:15 AM,8.6,6.8,92,29.86,0.5,NW,17.3,25.3,0.00,Fog-Snow,Light Snow,310,2012-12-08 17:15:00
10:25 AM,8.6,6.8,92,29.87,0.5,WNW,24.2,27.6,0.00,Fog-Snow,Light Snow,300,2012-12-08 17:25:00
10:54 AM,9.0,6.1,88,30.04,0.5,WNW,16.1,-,0.00,Fog-Snow,Snow,300,2012-12-08 17:54:00
11:54 AM,8.1,3.9,83,30.07,0.8,WNW,15.0,-,0.00,Snow,Light Snow,300,2012-12-08 18:54:00
12:54 PM,8.1,3.9,83,30.09,1.0,NW,12.7,-,0.00,Snow,Light Snow,310,2012-12-08 19:54:00
1:28 PM,6.8,3.2,85,29.95,2.0,WNW,10.4,-,0.00,Snow,Light Snow,290,2012-12-08 20:28:00
1:44 PM,6.8,3.2,85,29.96,1.8,WNW,13.8,-,0.00,Snow,Light Snow,300,2012-12-08 20:44:00
1:52 PM,8.6,3.2,79,29.96,2.5,WNW,10.4,-,0.00,Snow,Light Snow,290,2012-12-08 20:52:00
1:54 PM,8.1,3.9,83,30.12,2.5,West,12.7,-,0.00,Snow,Light Snow,280,2012-12-08 20:54:00
2:08 PM,8.6,3.2,79,29.97,2.5,WNW,10.4,-,0.00,Snow,Light Snow,290,2012-12-08 21:08:00
2:16 PM,6.8,3.2,85,29.98,3.0,WNW,12.7,19.6,0.00,Snow,Light Snow,290,2012-12-08 21:16:00
2:54 PM,7.0,3.9,87,30.17,2.5,WNW,8.1,-,0.00,Snow,Light Snow,290,2012-12-08 21:54:00
3:09 PM,8.6,3.2,79,30.02,3.0,WNW,8.1,-,0.00,Snow,Light Snow,290,2012-12-08 22:09:00
3:32 PM,6.8,3.2,85,30.03,2.5,WNW,8.1,-,0.00,Snow,Light Snow,290,2012-12-08 22:32:00
3:45 PM,6.8,3.2,85,30.05,3.0,WNW,9.2,-,0.00,Snow,Light Snow,300,2012-12-08 22:45:00
3:54 PM,7.0,3.0,84,30.22,3.0,WNW,10.4,17.3,0.00,Snow,Light Snow,300,2012-12-08 22:54:00
4:09 PM,6.8,3.2,85,30.06,3.0,WNW,9.2,-,0.00,Snow,Light Snow,300,2012-12-08 23:09:00
4:31 PM,6.8,3.2,85,30.08,2.5,West,9.2,-,0.00,Snow,Light Snow,280,2012-12-08 23:31:00
4:40 PM,6.8,3.2,85,30.08,3.0,West,8.1,-,0.00,Snow,Light Snow,280,2012-12-08 23:40:00
4:54 PM,7.0,3.0,84,30.26,4.0,WNW,9.2,-,0.00,Snow,Light Snow,290,2012-12-08 23:54:00
5:54 PM,7.0,3.0,84,30.27,10.0,WSW,5.8,-,0.00,,Overcast,240,2012-12-09 00:54:00
6:54 PM,7.0,3.0,84,30.31,4.0,WSW,6.9,-,0.00,Snow,Light Snow,250,2012-12-09 01:54:00
7:22 PM,6.8,3.2,85,30.13,2.5,SW,4.6,-,0.00,Snow,Light Snow,230,2012-12-09 02:22:00
7:37 PM,6.8,3.2,85,30.14,2.0,WSW,5.8,-,0.00,Snow,Light Snow,250,2012-12-09 02:37:00
7:54 PM,6.1,3.0,87,30.35,2.0,West,4.6,-,0.00,Snow,Light Snow,260,2012-12-09 02:54:00
8:17 PM,6.8,1.4,79,30.14,3.0,West,6.9,-,0.00,Snow,Light Snow,280,2012-12-09 03:17:00
8:54 PM,3.0,1.0,91,30.38,5.0,West,5.8,-,0.00,,Overcast,260,2012-12-09 03:54:00
9:54 PM,1.0,-0.9,91,30.40,6.0,Calm,Calm,-,N/A,,Overcast,0,2012-12-09 04:54:00
10:54 PM,1.0,-2.0,87,30.41,8.0,SSE,4.6,-,N/A,,Clear,160,2012-12-09 05:54:00
11:10 PM,-0.4,-2.2,92,30.17,8.0,ESE,3.5,-,N/A,,Mostly Cloudy,120,2012-12-09 06:10:00
11:31 PM,-0.4,-2.2,92,30.18,9.0,SSE,3.5,-,N/A,,Scattered Clouds,150,2012-12-09 06:31:00
11:54 PM,-4.0,-6.0,91,30.43,10.0,SSE,5.8,-,N/A,,Clear,150,2012-12-09 06:54:00